Lassen Volcanic National Park, CA

11:47 PM PST on January 25, 2015 (GMT -0800)
Oroville Municipal | Change Station
CLOSE
Current Station
Airport
Location: Oroville,
Elevation: 190 ft
Nearby Weather Stations

Elev 190 ft 39.49 °N, 121.62 °W | Updated 54 minutes ago

Clear
Clear
47 °F
Feels Like 47 °F
N
6
Wind Variable Wind from ESE

Today
High -- | Low -- °F
--% Chance of Precip.
Yesterday
High -- | Low -- °F
Precip. -- in
7:21 AM 5:15 PM
Waxing Crescent, 40% visible
Pressure 30.10 in
Visibility 9.0 miles
Clouds Clear
Dew Point 43 °F
Humidity 86%
Rainfall 0.00 in
Snow Depth Not available.
UV 0 out of 12
Pollen 5.70 out of 12
Air Quality Not available.
Flu Activity Not available.
METAR KOVE 260653Z AUTO 11005KT 9SM CLR 08/06 A3009 RMK AO2 SLP191 T00830061

More Conditions Fewer Conditions

Pressure 30.10 in
Visibility 9.0 miles
Clouds Clear
Dew Point 43 °F
Humidity 86%
Rainfall 0.00 in
Snow Depth Not available.
UV 0 out of 12
Pollen 5.70 out of 12
Air Quality Not available.
Flu Activity Not available.
METAR KOVE 260653Z AUTO 11005KT 9SM CLR 08/06 A3009 RMK AO2 SLP191 T00830061

More Conditions Fewer Conditions

10-Day Weather Forecast

Almanac

Astronomy

Jan. 25, 2015 Rise Set
Actual Time
Civil Twilight
Nautical Twilight
Astronomical Twilight
Moon
Length of Visible Light
Length of Day
Tomorrow will be .
, % of the Moon is Illuminated

Today's Extremes

State Highs State Lows

Community

WunderPhotos

Upload Photos

1,790,155 photos uploaded!

WunderBlogs® & News

Nearby

Air Quality

  Air Quality AQ Index Pollutant
Not available.

Snow Depth

Station Depth Elevation

Earthquake Activity

City Distance Mag. Time & Date
Minimum magnitude displayed is 2.5.

Coastal Water Temperatures

Place Temperature

Nearby Weather Stations